createdAt,value
2022-11-27T00:00:06.344Z,9.13
2022-11-27T00:02:37.830Z,9.65
2022-11-27T00:05:07.985Z,9.25
2022-11-27T00:07:35.161Z,9.23
2022-11-27T00:10:02.324Z,9.80
2022-11-27T00:12:29.407Z,8.32
2022-11-27T00:14:56.478Z,8.93
2022-11-27T00:17:23.590Z,9.18
2022-11-27T00:19:51.009Z,9.50
2022-11-27T00:22:18.068Z,9.45
2022-11-27T00:24:45.324Z,9.13
2022-11-27T00:27:12.680Z,8.48
2022-11-27T00:29:39.736Z,10.05
2022-11-27T00:32:08.409Z,9.68
2022-11-27T00:34:35.540Z,9.05
2022-11-27T00:37:02.676Z,8.82
2022-11-27T00:39:29.777Z,9.63
2022-11-27T00:41:57.260Z,10.07
2022-11-27T00:44:24.293Z,9.07
2022-11-27T00:46:51.440Z,8.38
2022-11-27T00:49:18.673Z,9.57
2022-11-27T00:51:45.777Z,8.18
2022-11-27T00:54:12.916Z,8.27
2022-11-27T00:56:40.551Z,8.63
2022-11-27T00:59:08.490Z,9.00
2022-11-27T01:01:42.282Z,8.80
2022-11-27T01:04:14.471Z,8.25
2022-11-27T01:06:47.871Z,8.25
2022-11-27T01:09:16.122Z,8.30
2022-11-27T01:11:50.339Z,8.18
2022-11-27T01:14:19.007Z,8.23
2022-11-27T01:16:47.167Z,8.45
2022-11-27T01:19:15.474Z,7.25
2022-11-27T01:21:42.969Z,7.93
2022-11-27T01:24:12.857Z,7.07
2022-11-27T01:26:39.976Z,7.10
2022-11-27T01:29:07.336Z,8.00
2022-11-27T01:31:35.165Z,7.45
2022-11-27T01:34:05.442Z,7.53
2022-11-27T01:36:33.555Z,7.28
2022-11-27T01:39:12.105Z,7.78
2022-11-27T01:41:40.134Z,7.03
2022-11-27T01:44:25.550Z,6.63
2022-11-27T01:47:27.156Z,7.05
2022-11-27T01:49:56.733Z,7.53
2022-11-27T01:52:31.139Z,7.28
2022-11-27T01:55:10.504Z,7.82
2022-11-27T01:57:44.905Z,7.93
2022-11-27T02:00:14.258Z,8.13
2022-11-27T02:02:43.243Z,7.30
2022-11-27T02:05:17.538Z,7.15
2022-11-27T02:07:45.431Z,6.93
2022-11-27T02:10:13.096Z,6.70
2022-11-27T02:13:01.561Z,7.65
2022-11-27T02:15:54.279Z,7.50
2022-11-27T02:18:37.870Z,6.55
2022-11-27T02:21:14.308Z,7.07
2022-11-27T02:24:00.161Z,6.13
2022-11-27T02:26:27.279Z,6.80
2022-11-27T02:29:05.093Z,6.85
2022-11-27T02:31:38.916Z,5.93
2022-11-27T02:34:35.599Z,6.13
2022-11-27T02:37:36.724Z,5.85
2022-11-27T02:40:30.347Z,6.22
2022-11-27T02:43:02.900Z,5.22
2022-11-27T02:45:38.904Z,5.90
2022-11-27T02:48:08.774Z,5.88
2022-11-27T02:50:38.214Z,6.20
2022-11-27T02:53:11.713Z,5.45
2022-11-27T02:55:42.577Z,5.25
2022-11-27T02:58:14.579Z,5.63
2022-11-27T03:00:43.747Z,5.32
2022-11-27T03:03:13.692Z,6.47
2022-11-27T03:05:44.173Z,5.32
2022-11-27T03:08:23.259Z,4.70
2022-11-27T03:11:03.479Z,5.18
2022-11-27T03:13:38.578Z,5.40
2022-11-27T03:16:29.312Z,5.60
2022-11-27T03:19:14.511Z,5.07
2022-11-27T03:21:57.439Z,5.32
2022-11-27T03:24:25.334Z,4.85
2022-11-27T03:26:52.977Z,5.47
2022-11-27T03:29:46.044Z,5.78
2022-11-27T03:32:13.438Z,5.20
2022-11-27T03:34:41.654Z,4.50
2022-11-27T03:37:09.257Z,4.88
2022-11-27T03:39:36.832Z,5.07
2022-11-27T03:42:21.504Z,5.00
2022-11-27T03:45:17.042Z,5.10
2022-11-27T03:47:56.057Z,4.50
2022-11-27T03:50:41.117Z,4.90
2022-11-27T03:53:25.132Z,4.75
2022-11-27T03:56:18.582Z,4.40
2022-11-27T03:59:06.506Z,4.20
2022-11-27T04:01:34.326Z,4.05
2022-11-27T04:04:01.546Z,4.07
2022-11-27T04:06:29.023Z,3.50
2022-11-27T04:08:56.122Z,3.75
2022-11-27T04:11:23.419Z,3.60
2022-11-27T04:13:52.416Z,3.50
2022-11-27T04:16:20.465Z,3.38
2022-11-27T04:18:48.999Z,3.85
2022-11-27T04:21:17.151Z,3.85
2022-11-27T04:23:44.947Z,4.13
2022-11-27T04:26:12.250Z,3.58
2022-11-27T04:28:39.337Z,3.72
2022-11-27T04:31:06.419Z,4.07
2022-11-27T04:33:33.941Z,4.32
2022-11-27T04:36:01.103Z,3.58
2022-11-27T04:38:28.368Z,4.10
2022-11-27T04:40:55.463Z,3.97
2022-11-27T04:43:22.511Z,3.60
2022-11-27T04:45:50.014Z,3.45
2022-11-27T04:48:17.191Z,3.63
2022-11-27T04:50:44.609Z,4.00
2022-11-27T04:53:11.741Z,3.67
2022-11-27T04:55:38.858Z,3.40
2022-11-27T04:58:06.026Z,3.88
2022-11-27T05:00:33.294Z,3.53
2022-11-27T05:03:00.728Z,3.22
2022-11-27T05:05:27.881Z,3.22
2022-11-27T05:07:55.086Z,3.20
2022-11-27T05:10:22.363Z,3.20
2022-11-27T05:12:49.468Z,3.35
2022-11-27T05:15:16.673Z,2.90
2022-11-27T05:17:43.850Z,2.70
2022-11-27T05:20:11.315Z,3.15
2022-11-27T05:22:38.892Z,2.83
2022-11-27T05:25:06.356Z,2.83
2022-11-27T05:27:33.469Z,3.05
2022-11-27T05:30:00.594Z,3.42
2022-11-27T05:32:27.679Z,2.88
2022-11-27T05:34:54.864Z,2.80
2022-11-27T05:37:22.989Z,2.85
2022-11-27T05:39:58.248Z,2.83
2022-11-27T05:42:25.366Z,2.92
2022-11-27T05:44:57.821Z,2.55
2022-11-27T05:47:25.579Z,2.70
2022-11-27T05:49:52.838Z,2.55
2022-11-27T05:52:20.310Z,3.05
2022-11-27T05:54:48.386Z,2.90
2022-11-27T05:57:15.447Z,2.40
2022-11-27T05:59:42.674Z,3.00
2022-11-27T06:02:10.616Z,2.40
2022-11-27T06:04:40.340Z,2.53
2022-11-27T06:07:07.790Z,2.95
2022-11-27T06:09:37.354Z,2.97
2022-11-27T06:12:04.683Z,2.50
2022-11-27T06:14:35.913Z,2.65
2022-11-27T06:17:04.113Z,2.58
2022-11-27T06:19:31.540Z,2.42
2022-11-27T06:21:58.687Z,1.98
2022-11-27T06:24:25.898Z,2.10
2022-11-27T06:26:53.094Z,1.80
2022-11-27T06:29:21.252Z,2.30
2022-11-27T06:31:48.323Z,2.13
2022-11-27T06:34:15.427Z,1.88
2022-11-27T06:36:42.550Z,1.48
2022-11-27T06:39:11.928Z,1.67
2022-11-27T06:41:39.271Z,1.45
2022-11-27T06:44:06.441Z,1.67
2022-11-27T06:46:33.492Z,1.10
2022-11-27T06:49:01.657Z,1.40
2022-11-27T06:51:30.919Z,1.00
2022-11-27T06:54:00.343Z,1.23
2022-11-27T06:56:29.382Z,1.23
2022-11-27T06:58:59.560Z,1.40
2022-11-27T07:01:28.261Z,1.40
2022-11-27T07:03:56.637Z,1.35
2022-11-27T07:06:25.914Z,1.50
2022-11-27T07:08:54.972Z,1.25
2022-11-27T07:11:25.480Z,1.60
2022-11-27T07:13:54.708Z,1.70
2022-11-27T07:16:22.090Z,1.40
2022-11-27T07:18:53.574Z,1.60
2022-11-27T07:23:48.266Z,1.65
2022-11-27T07:26:21.701Z,1.75
2022-11-27T07:28:48.962Z,1.92
2022-11-27T07:31:21.166Z,2.00
2022-11-27T07:33:49.086Z,1.80
2022-11-27T07:36:19.083Z,1.75
2022-11-27T07:38:47.271Z,2.00
2022-11-27T07:41:15.304Z,1.75
2022-11-27T07:43:43.906Z,2.40
2022-11-27T07:46:17.153Z,2.00
2022-11-27T07:48:44.874Z,1.75
2022-11-27T07:51:15.405Z,1.60
2022-11-27T07:53:43.302Z,1.53
2022-11-27T07:56:13.136Z,1.50
2022-11-27T07:58:40.504Z,1.10
2022-11-27T08:01:13.403Z,1.45
2022-11-27T08:03:40.548Z,1.23
2022-11-27T08:06:15.922Z,1.35
2022-11-27T08:08:43.538Z,1.70
2022-11-27T08:11:22.725Z,1.50
2022-11-27T08:13:50.966Z,1.33
2022-11-27T08:16:18.183Z,1.33
2022-11-27T08:18:45.316Z,1.17
2022-11-27T08:21:12.977Z,1.30
2022-11-27T08:23:40.216Z,1.30
2022-11-27T08:26:09.041Z,1.23
2022-11-27T08:28:37.189Z,1.33
2022-11-27T08:31:06.338Z,0.90
2022-11-27T08:33:34.331Z,0.93
2022-11-27T08:36:01.641Z,1.60
2022-11-27T08:38:28.928Z,1.40
2022-11-27T08:41:01.826Z,1.35
2022-11-27T08:43:30.005Z,1.17
2022-11-27T08:45:57.575Z,1.40
2022-11-27T08:48:25.812Z,1.50
2022-11-27T08:50:53.129Z,1.70
2022-11-27T08:53:20.933Z,1.70
2022-11-27T08:55:48.123Z,1.42
2022-11-27T08:58:15.340Z,1.48
2022-11-27T09:00:42.804Z,2.00
2022-11-27T09:03:12.633Z,1.70
2022-11-27T09:05:44.097Z,1.88
2022-11-27T09:10:40.681Z,1.35
2022-11-27T09:13:07.802Z,2.03
2022-11-27T09:15:35.010Z,1.58
2022-11-27T09:18:02.054Z,1.75
2022-11-27T09:20:29.301Z,2.20
2022-11-27T09:22:56.388Z,1.63
2022-11-27T09:25:23.422Z,2.00
2022-11-27T09:27:50.605Z,1.92
2022-11-27T09:30:17.867Z,2.05
2022-11-27T09:32:44.943Z,1.67
2022-11-27T09:35:12.132Z,1.45
2022-11-27T09:37:39.176Z,1.98
2022-11-27T09:40:07.120Z,2.13
2022-11-27T09:42:43.042Z,1.83
2022-11-27T09:45:15.558Z,1.80
2022-11-27T09:48:04.852Z,1.92
2022-11-27T09:50:42.265Z,2.08
2022-11-27T09:53:29.357Z,2.45
2022-11-27T09:56:00.226Z,2.10
2022-11-27T09:58:39.541Z,1.80
2022-11-27T10:01:13.276Z,2.30
2022-11-27T10:03:45.779Z,2.00
2022-11-27T10:06:28.898Z,2.30
2022-11-27T10:09:12.618Z,2.20
2022-11-27T10:12:06.592Z,2.70
2022-11-27T10:14:54.985Z,1.70
2022-11-27T10:18:01.542Z,13.02
2022-11-27T10:20:40.014Z,2.70
2022-11-27T10:23:18.619Z,2.13
2022-11-27T10:25:55.463Z,2.08
2022-11-27T10:28:55.966Z,1.95
2022-11-27T10:31:35.347Z,2.08
2022-11-27T10:34:19.215Z,1.85
2022-11-27T10:36:49.851Z,2.25
2022-11-27T10:39:23.361Z,2.10
2022-11-27T10:42:03.238Z,1.98
2022-11-27T10:44:44.719Z,2.10
2022-11-27T10:47:14.167Z,2.13
2022-11-27T10:49:42.614Z,2.28
2022-11-27T10:52:18.610Z,2.50
2022-11-27T10:54:58.895Z,2.22
2022-11-27T10:57:42.706Z,2.13
2022-11-27T11:00:15.893Z,2.50
2022-11-27T11:02:43.085Z,2.90
2022-11-27T11:05:34.695Z,2.40
2022-11-27T11:08:19.503Z,2.45
2022-11-27T11:10:54.159Z,2.67
2022-11-27T11:13:29.838Z,2.78
2022-11-27T11:16:17.539Z,2.70
2022-11-27T11:18:53.369Z,3.27
2022-11-27T11:21:26.370Z,2.70
2022-11-27T11:24:13.152Z,3.10
2022-11-27T11:27:04.855Z,3.00
2022-11-27T11:32:09.535Z,3.00
2022-11-27T11:34:43.287Z,2.65
2022-11-27T11:37:24.899Z,3.47
2022-11-27T11:40:04.230Z,3.35
2022-11-27T11:42:33.623Z,3.45
2022-11-27T11:45:03.641Z,3.50
2022-11-27T11:47:31.300Z,3.38
2022-11-27T11:49:59.194Z,3.40
2022-11-27T11:52:49.224Z,3.25
2022-11-27T11:55:40.429Z,3.60
2022-11-27T11:58:24.549Z,3.95
2022-11-27T12:01:26.369Z,3.38
2022-11-27T12:04:12.686Z,3.47
2022-11-27T12:06:48.861Z,3.45
2022-11-27T12:09:27.858Z,3.78
2022-11-27T12:12:11.669Z,3.50
2022-11-27T12:14:54.337Z,3.67
2022-11-27T12:17:55.445Z,3.47
2022-11-27T12:20:23.083Z,3.20
2022-11-27T12:23:09.598Z,3.65
2022-11-27T12:25:38.770Z,3.50
2022-11-27T12:28:39.300Z,3.72
2022-11-27T12:31:09.846Z,3.33
2022-11-27T12:33:54.363Z,3.13
2022-11-27T12:36:48.627Z,3.55
2022-11-27T12:39:55.658Z,3.58
2022-11-27T12:42:42.751Z,3.05
2022-11-27T12:45:17.561Z,3.55
2022-11-27T12:47:57.039Z,3.90
2022-11-27T12:50:39.521Z,3.30
2022-11-27T12:53:20.290Z,3.53
2022-11-27T12:56:25.304Z,3.15
2022-11-27T12:58:59.421Z,3.28
2022-11-27T13:01:33.854Z,3.85
2022-11-27T13:04:30.641Z,3.08
2022-11-27T13:07:09.708Z,3.05
2022-11-27T13:09:50.393Z,3.13
2022-11-27T13:12:31.209Z,2.93
2022-11-27T13:15:22.858Z,3.13
2022-11-27T13:17:57.440Z,3.45
2022-11-27T13:20:37.617Z,3.45
2022-11-27T13:23:05.055Z,3.40
2022-11-27T13:25:35.201Z,3.20
2022-11-27T13:28:05.109Z,3.40
2022-11-27T13:30:36.511Z,3.20
2022-11-27T13:33:06.741Z,3.78
2022-11-27T13:35:43.638Z,2.92
2022-11-27T13:38:21.905Z,3.70
2022-11-27T13:40:52.786Z,3.22
2022-11-27T13:43:24.122Z,3.10
2022-11-27T13:45:51.995Z,3.33
2022-11-27T13:48:38.827Z,2.95
2022-11-27T13:51:11.196Z,3.08
2022-11-27T13:53:43.069Z,3.15
2022-11-27T13:56:10.501Z,3.15
2022-11-27T13:58:43.687Z,3.25
2022-11-27T14:01:14.266Z,3.30
2022-11-27T14:03:42.569Z,2.73
2022-11-27T14:06:26.450Z,3.17
2022-11-27T14:08:59.610Z,3.10
2022-11-27T14:11:43.960Z,3.10
2022-11-27T14:14:23.256Z,2.50
2022-11-27T14:17:01.910Z,2.85
2022-11-27T14:19:43.994Z,3.60
2022-11-27T14:22:32.858Z,3.03
2022-11-27T14:24:59.929Z,3.45
2022-11-27T14:27:33.774Z,3.17
2022-11-27T14:30:29.504Z,3.38
2022-11-27T14:32:56.761Z,3.45
2022-11-27T14:35:29.105Z,3.17
2022-11-27T14:38:09.534Z,3.17
2022-11-27T14:40:37.796Z,3.53
2022-11-27T14:43:15.114Z,3.53
2022-11-27T14:45:52.231Z,3.45
2022-11-27T14:48:25.503Z,4.50
2022-11-27T14:50:55.264Z,4.25
2022-11-27T14:53:27.334Z,3.75
2022-11-27T14:55:57.808Z,4.00
2022-11-27T14:58:30.311Z,3.70
2022-11-27T15:01:01.417Z,4.30
2022-11-27T15:03:29.361Z,3.95
2022-11-27T15:06:03.175Z,4.35
2022-11-27T15:08:36.077Z,4.30
2022-11-27T15:11:04.947Z,4.25
2022-11-27T15:13:36.586Z,3.88
2022-11-27T15:16:15.844Z,4.25
2022-11-27T15:18:48.797Z,22.15
2022-11-27T15:21:26.582Z,5.85
2022-11-27T15:23:59.529Z,4.88
2022-11-27T15:26:40.826Z,4.80
2022-11-27T15:30:00.325Z,4.18
2022-11-27T15:32:42.162Z,4.25
2022-11-27T15:35:36.890Z,4.15
2022-11-27T15:38:11.694Z,4.25
2022-11-27T15:40:41.163Z,4.03
2022-11-27T15:43:13.759Z,4.03
2022-11-27T15:45:43.129Z,6.10
2022-11-27T15:48:18.910Z,5.00
2022-11-27T15:50:51.864Z,4.38
2022-11-27T15:53:20.798Z,4.45
2022-11-27T15:55:47.961Z,5.57
2022-11-27T15:58:18.475Z,3.95
2022-11-27T16:00:52.094Z,3.35
2022-11-27T16:03:22.639Z,3.90
2022-11-27T16:05:52.955Z,4.10
2022-11-27T16:08:23.883Z,3.92
2022-11-27T16:10:59.416Z,3.40
2022-11-27T16:13:30.422Z,3.80
2022-11-27T16:16:12.453Z,3.42
2022-11-27T16:18:43.784Z,3.33
2022-11-27T16:21:25.419Z,3.88
2022-11-27T16:24:00.956Z,3.80
2022-11-27T16:26:29.664Z,3.58
2022-11-27T16:29:00.774Z,3.85
2022-11-27T16:31:28.253Z,3.42
2022-11-27T16:33:55.500Z,3.60
2022-11-27T16:36:23.442Z,3.63
2022-11-27T16:38:53.152Z,5.53
2022-11-27T16:41:20.762Z,4.68
2022-11-27T16:43:51.502Z,5.63
2022-11-27T16:46:21.574Z,4.50
2022-11-27T16:48:50.135Z,4.05
2022-11-27T16:51:37.637Z,3.90
2022-11-27T16:54:07.810Z,4.53
2022-11-27T16:56:35.671Z,4.03
2022-11-27T16:59:03.526Z,3.45
2022-11-27T17:01:36.282Z,3.83
2022-11-27T17:04:07.506Z,4.30
2022-11-27T17:06:35.340Z,3.72
2022-11-27T17:09:04.890Z,3.92
2022-11-27T17:11:34.290Z,3.10
2022-11-27T17:14:03.985Z,4.15
2022-11-27T17:16:31.342Z,3.70
2022-11-27T17:18:58.463Z,3.95
2022-11-27T17:21:31.094Z,3.70
2022-11-27T17:24:14.677Z,3.47
2022-11-27T17:26:43.681Z,3.65
2022-11-27T17:29:12.565Z,6.70
2022-11-27T17:31:40.055Z,7.40
2022-11-27T17:34:08.021Z,7.05
2022-11-27T17:36:37.381Z,4.60
2022-11-27T17:39:06.035Z,4.38
2022-11-27T17:41:33.627Z,5.53
2022-11-27T17:44:00.846Z,4.03
2022-11-27T17:46:29.196Z,3.80
2022-11-27T17:48:59.257Z,4.30
2022-11-27T17:51:28.205Z,3.35
2022-11-27T17:53:55.722Z,3.72
2022-11-27T17:56:23.314Z,3.70
2022-11-27T17:58:50.479Z,3.80
2022-11-27T18:01:23.682Z,3.92
2022-11-27T18:03:51.749Z,3.00
2022-11-27T18:06:20.053Z,3.80
2022-11-27T18:08:52.743Z,3.25
2022-11-27T18:11:24.844Z,3.72
2022-11-27T18:13:52.260Z,3.78
2022-11-27T18:16:21.708Z,3.00
2022-11-27T18:18:49.818Z,3.05
2022-11-27T18:21:20.127Z,3.53
2022-11-27T18:27:06.733Z,6.32
2022-11-27T18:29:25.707Z,6.60
2022-11-27T18:31:53.720Z,11.50
2022-11-27T18:34:20.923Z,5.85
2022-11-27T18:36:47.987Z,21.38
2022-11-27T18:39:19.508Z,10.95
2022-11-27T18:44:13.640Z,6.45
2022-11-27T18:46:40.726Z,4.10
2022-11-27T18:49:08.306Z,3.40
2022-11-27T18:51:35.869Z,3.03
2022-11-27T18:54:02.949Z,3.28
2022-11-27T18:56:33.771Z,3.05
2022-11-27T18:59:03.517Z,3.30
2022-11-27T19:01:39.531Z,3.13
2022-11-27T19:04:09.827Z,3.10
2022-11-27T19:06:38.646Z,3.20
2022-11-27T19:09:06.685Z,3.05
2022-11-27T19:11:35.355Z,2.40
2022-11-27T19:14:02.593Z,3.20
2022-11-27T19:16:35.093Z,2.40
2022-11-27T19:19:04.728Z,3.33
2022-11-27T19:21:33.210Z,2.90
2022-11-27T19:24:01.666Z,2.97
2022-11-27T19:26:32.690Z,4.70
2022-11-27T19:29:03.919Z,4.82
2022-11-27T19:31:33.260Z,3.20
2022-11-27T19:34:02.551Z,6.05
2022-11-27T19:36:31.768Z,7.88
2022-11-27T19:39:05.705Z,3.00
2022-11-27T19:41:33.635Z,3.67
2022-11-27T19:44:05.392Z,3.17
2022-11-27T19:46:35.627Z,3.10
2022-11-27T19:49:07.062Z,2.90
2022-11-27T19:54:08.360Z,3.10
2022-11-27T19:56:39.153Z,2.78
2022-11-27T19:59:06.682Z,2.67
2022-11-27T20:01:33.881Z,2.72
2022-11-27T20:04:03.551Z,2.63
2022-11-27T20:06:30.868Z,2.70
2022-11-27T20:09:01.562Z,3.38
2022-11-27T20:11:34.096Z,3.03
2022-11-27T20:14:02.073Z,2.33
2022-11-27T20:16:29.436Z,2.30
2022-11-27T20:18:56.796Z,3.35
2022-11-27T20:21:26.320Z,2.38
2022-11-27T20:23:54.763Z,2.65
2022-11-27T20:26:24.915Z,2.25
2022-11-27T20:28:55.763Z,2.35
2022-11-27T20:31:30.317Z,2.63
2022-11-27T20:34:01.124Z,2.25
2022-11-27T20:36:30.370Z,2.55
2022-11-27T20:38:59.859Z,2.00
2022-11-27T20:41:27.994Z,2.55
2022-11-27T20:43:58.468Z,2.33
2022-11-27T20:46:26.665Z,2.88
2022-11-27T20:48:54.681Z,2.22
2022-11-27T20:51:27.629Z,1.95
2022-11-27T20:53:56.745Z,2.13
2022-11-27T20:56:24.145Z,2.00
2022-11-27T20:58:51.404Z,2.10
2022-11-27T21:01:31.307Z,2.60
2022-11-27T21:04:01.371Z,2.10
2022-11-27T21:06:31.156Z,2.38
2022-11-27T21:09:02.193Z,2.00
2022-11-27T21:11:31.689Z,2.45
2022-11-27T21:14:06.656Z,2.05
2022-11-27T21:16:36.345Z,1.90
2022-11-27T21:19:07.770Z,1.70
2022-11-27T21:21:35.718Z,1.85
2022-11-27T21:24:02.862Z,2.42
2022-11-27T21:26:30.209Z,1.80
2022-11-27T21:28:57.380Z,2.22
2022-11-27T21:31:26.764Z,2.20
2022-11-27T21:33:56.080Z,2.67
2022-11-27T21:36:25.864Z,2.17
2022-11-27T21:38:53.486Z,2.40
2022-11-27T21:41:21.058Z,2.25
2022-11-27T21:43:49.220Z,2.40
2022-11-27T21:46:22.741Z,2.28
2022-11-27T21:48:55.612Z,2.58
2022-11-27T21:51:23.569Z,2.20
2022-11-27T21:53:52.276Z,2.75
2022-11-27T21:56:23.507Z,1.92
2022-11-27T21:58:51.375Z,2.33
2022-11-27T22:01:21.685Z,1.92
2022-11-27T22:03:54.271Z,2.55
2022-11-27T22:06:23.341Z,2.42
2022-11-27T22:08:54.533Z,2.50
2022-11-27T22:11:27.201Z,2.42
2022-11-27T22:14:04.276Z,2.47
2022-11-27T22:16:34.275Z,2.40
2022-11-27T22:19:02.012Z,2.47
2022-11-27T22:21:30.833Z,2.50
2022-11-27T22:23:58.917Z,2.58
2022-11-27T22:26:26.111Z,2.80
2022-11-27T22:28:53.774Z,2.33
2022-11-27T22:31:28.273Z,2.67
2022-11-27T22:33:55.684Z,1.98
2022-11-27T22:36:30.785Z,2.45
2022-11-27T22:38:59.717Z,2.60
2022-11-27T22:41:29.429Z,2.55
2022-11-27T22:43:58.105Z,2.97
2022-11-27T22:46:28.567Z,2.45
2022-11-27T22:48:58.366Z,2.70
2022-11-27T22:51:27.087Z,2.65
2022-11-27T22:53:54.451Z,2.72
2022-11-27T22:56:21.941Z,2.88
2022-11-27T22:58:49.394Z,2.58
2022-11-27T23:01:19.502Z,2.63
2022-11-27T23:03:50.619Z,3.90
2022-11-27T23:06:22.474Z,3.08
2022-11-27T23:08:50.748Z,2.83
2022-11-27T23:11:21.305Z,2.83
2022-11-27T23:13:50.017Z,3.20
2022-11-27T23:16:21.641Z,2.88
2022-11-27T23:21:21.557Z,2.90
2022-11-27T23:23:49.498Z,2.83
2022-11-27T23:26:19.752Z,2.85
2022-11-27T23:28:49.116Z,2.97
2022-11-27T23:31:30.083Z,3.28
2022-11-27T23:34:07.734Z,3.60
2022-11-27T23:36:35.789Z,3.65
2022-11-27T23:39:08.399Z,3.30
2022-11-27T23:41:36.031Z,2.75
2022-11-27T23:44:06.736Z,3.58
2022-11-27T23:46:33.972Z,3.28
2022-11-27T23:49:01.151Z,3.40
2022-11-27T23:51:31.238Z,3.50
2022-11-27T23:53:59.232Z,3.47
2022-11-27T23:56:30.650Z,3.50
2022-11-27T23:58:59.828Z,3.95
